Time;durP1;ratioP1;P1;durP2;ratioP2;P2;SDS_P1;SDS_P2;PMS_P1;PMS_P2;Temp;Humidity;BMP_temperature;BMP_pressure;BME280_temperature;BME280_humidity;BME280_pressure;Samples;Min_cycle;Max_cycle;Signal;HPM_P1;HPM_P2
2022/07/07 00:01:23;;;;;;;13.65;5.97;;;15.80;99.90;;;;;;5118962;28;20111;-53
2022/07/07 00:03:50;;;;;;;12.65;6.35;;;15.80;99.90;;;;;;5118799;28;20046;-53
2022/07/07 00:06:17;;;;;;;13.57;6.13;;;15.70;99.90;;;;;;5118965;28;20124;-53
2022/07/07 00:08:43;;;;;;;10.32;6.00;;;15.70;99.90;;;;;;5118950;28;20059;-53
2022/07/07 00:11:08;;;;;;;14.55;6.82;;;15.70;99.90;;;;;;5118701;28;20019;-53
2022/07/07 00:13:34;;;;;;;9.77;6.10;;;15.70;99.90;;;;;;5118836;28;20027;-53
2022/07/07 00:16:00;;;;;;;11.00;6.50;;;15.70;99.90;;;;;;5118733;28;20470;-53
2022/07/07 00:18:26;;;;;;;11.90;5.75;;;15.70;99.90;;;;;;5118771;28;20023;-53
2022/07/07 00:20:52;;;;;;;10.77;6.32;;;15.60;99.90;;;;;;5118671;28;20085;-53
2022/07/07 00:23:18;;;;;;;10.40;6.35;;;15.50;99.90;;;;;;5118374;28;20088;-53
2022/07/07 00:25:43;;;;;;;12.85;6.75;;;15.40;99.90;;;;;;5118658;28;20372;-53
2022/07/07 00:28:10;;;;;;;10.80;7.30;;;15.40;99.90;;;;;;5118579;27;20032;-53
2022/07/07 00:30:36;;;;;;;14.30;7.40;;;15.40;99.90;;;;;;5118449;28;20032;-53
2022/07/07 00:33:02;;;;;;;13.35;6.88;;;15.40;99.90;;;;;;5118462;28;20380;-53
2022/07/07 00:35:28;;;;;;;11.73;6.65;;;15.40;99.90;;;;;;5118358;28;20028;-53
2022/07/07 00:37:54;;;;;;;11.02;7.07;;;15.40;99.90;;;;;;5118352;28;20038;-53
2022/07/07 00:40:20;;;;;;;14.52;7.47;;;15.40;99.90;;;;;;5118276;28;20024;-53
2022/07/07 00:42:45;;;;;;;14.57;7.22;;;15.30;99.90;;;;;;5118265;28;20055;-53
2022/07/07 00:45:11;;;;;;;10.63;7.07;;;15.20;99.90;;;;;;5118214;28;20015;-53
2022/07/07 00:47:40;;;;;;;11.68;6.95;;;15.20;99.90;;;;;;5118016;28;20035;-53
2022/07/07 00:50:07;;;;;;;12.45;6.80;;;15.20;99.90;;;;;;5117953;28;20039;-53
2022/07/07 00:52:33;;;;;;;14.13;6.90;;;15.20;99.90;;;;;;5118048;28;20027;-53
2022/07/07 00:55:02;;;;;;;13.27;7.00;;;15.10;99.90;;;;;;5116736;28;20035;-53
2022/07/07 00:57:28;;;;;;;15.48;7.60;;;15.20;99.90;;;;;;5117976;28;20038;-53
2022/07/07 01:00:10;;;;;;;12.48;7.32;;;15.10;99.90;;;;;;5117423;28;20032;-53
2022/07/07 01:02:36;;;;;;;13.48;7.80;;;15.10;99.90;;;;;;5117832;28;20019;-53
2022/07/07 01:05:05;;;;;;;12.32;7.28;;;15.00;99.90;;;;;;5117759;28;20039;-53
2022/07/07 01:07:31;;;;;;;12.40;7.10;;;15.00;99.90;;;;;;5117794;28;20024;-53
2022/07/07 01:09:59;;;;;;;9.48;6.80;;;15.00;99.90;;;;;;5117814;28;20047;-53
2022/07/07 01:12:26;;;;;;;13.65;6.65;;;14.90;99.90;;;;;;5117638;28;20492;-53
2022/07/07 01:14:52;;;;;;;12.90;6.65;;;15.00;99.90;;;;;;5117689;28;20358;-53
2022/07/07 01:17:18;;;;;;;15.27;7.15;;;14.90;99.90;;;;;;5117556;28;20061;-53
2022/07/07 01:19:44;;;;;;;12.48;7.20;;;15.00;99.90;;;;;;5117568;28;20491;-53
2022/07/07 01:22:13;;;;;;;11.80;6.53;;;15.00;99.90;;;;;;5117392;28;20491;-53
2022/07/07 01:24:40;;;;;;;9.93;6.40;;;15.00;99.90;;;;;;5117319;28;20067;-53
2022/07/07 01:27:07;;;;;;;11.57;6.60;;;15.00;99.90;;;;;;5117354;28;20091;-53
2022/07/07 01:29:41;;;;;;;12.57;6.53;;;14.90;99.90;;;;;;5117416;28;20030;-53
2022/07/07 01:32:08;;;;;;;13.75;6.60;;;15.10;99.90;;;;;;5117546;28;20453;-53
2022/07/07 01:34:38;;;;;;;9.93;5.15;;;15.00;99.90;;;;;;5117052;28;20050;-53
2022/07/07 01:37:04;;;;;;;10.90;5.28;;;15.00;99.90;;;;;;5117210;28;20377;-53
2022/07/07 01:39:30;;;;;;;13.35;6.15;;;14.90;99.90;;;;;;5117286;28;20100;-53
2022/07/07 01:41:56;;;;;;;9.55;6.28;;;14.80;99.90;;;;;;5117077;28;20020;-53
2022/07/07 01:44:22;;;;;;;10.35;6.22;;;14.70;99.90;;;;;;5117057;28;20051;-53
2022/07/07 01:46:48;;;;;;;13.75;6.60;;;14.70;99.90;;;;;;5116936;28;20031;-53
2022/07/07 01:49:14;;;;;;;14.70;7.20;;;14.60;99.90;;;;;;5116873;28;20027;-53
2022/07/07 01:51:40;;;;;;;9.88;6.32;;;14.60;99.90;;;;;;5116981;28;20392;-53
2022/07/07 01:54:06;;;;;;;9.00;6.80;;;14.60;99.90;;;;;;5116745;28;20036;-53
2022/07/07 01:56:32;;;;;;;11.63;6.65;;;14.50;99.90;;;;;;5116783;28;20100;-53
2022/07/07 01:58:58;;;;;;;9.07;6.13;;;14.50;99.90;;;;;;5116567;28;20024;-53
2022/07/07 02:01:24;;;;;;;12.65;7.15;;;14.50;99.90;;;;;;5116819;28;20051;-53
2022/07/07 02:03:50;;;;;;;10.07;6.68;;;14.40;99.90;;;;;;5116358;28;20039;-53
2022/07/07 02:06:16;;;;;;;8.77;6.63;;;14.40;99.90;;;;;;5116600;28;20479;-53
2022/07/07 02:08:42;;;;;;;12.07;6.78;;;14.40;99.90;;;;;;5116615;28;20023;-53
2022/07/07 02:11:14;;;;;;;16.38;8.27;;;14.40;99.90;;;;;;5115445;28;20096;-53
2022/07/07 02:13:48;;;;;;;19.48;8.63;;;14.40;99.90;;;;;;5116466;28;20023;-53
2022/07/07 02:16:15;;;;;;;11.23;7.80;;;14.40;99.90;;;;;;5116176;28;20020;-53
2022/07/07 02:18:43;;;;;;;9.35;6.63;;;14.40;99.90;;;;;;5116385;28;20050;-53
2022/07/07 02:21:11;;;;;;;14.00;8.18;;;14.50;99.90;;;;;;5116447;28;20500;-53
2022/07/07 02:23:39;;;;;;;9.63;6.70;;;14.50;99.90;;;;;;5116070;28;20035;-53
2022/07/07 02:26:05;;;;;;;11.88;6.78;;;14.50;99.90;;;;;;5116120;27;20063;-53
2022/07/07 02:28:31;;;;;;;9.90;7.18;;;14.40;99.90;;;;;;5116180;28;20059;-53
2022/07/07 02:30:58;;;;;;;13.18;7.03;;;14.40;99.90;;;;;;5115967;28;20058;-53
2022/07/07 02:33:25;;;;;;;11.95;6.25;;;14.40;99.90;;;;;;5116121;28;20106;-53
2022/07/07 02:35:52;;;;;;;12.60;7.72;;;14.40;99.90;;;;;;5116000;28;20389;-53
2022/07/07 02:38:19;;;;;;;9.80;6.50;;;14.40;99.90;;;;;;5115821;28;20107;-53
2022/07/07 02:40:45;;;;;;;15.05;6.63;;;14.30;99.90;;;;;;5116030;28;20047;-53
2022/07/07 02:43:14;;;;;;;9.68;6.13;;;14.40;99.90;;;;;;5115986;28;20015;-53
2022/07/07 02:45:44;;;;;;;7.93;5.97;;;14.50;99.90;;;;;;5116028;28;20366;-53
2022/07/07 02:48:12;;;;;;;8.85;5.82;;;14.50;99.90;;;;;;5115765;28;20032;-53
2022/07/07 02:50:39;;;;;;;8.35;5.82;;;14.40;99.90;;;;;;5115710;28;20059;-53
2022/07/07 02:53:05;;;;;;;11.55;6.22;;;14.40;99.90;;;;;;5115602;28;20059;-53
2022/07/07 02:55:32;;;;;;;8.50;6.20;;;14.30;99.90;;;;;;5115765;28;20035;-53
2022/07/07 02:57:58;;;;;;;10.90;6.13;;;14.30;99.90;;;;;;5115554;28;20031;-53
2022/07/07 03:00:25;;;;;;;11.57;6.75;;;14.30;99.90;;;;;;5115487;28;20661;-53
2022/07/07 03:02:54;;;;;;;11.85;6.82;;;14.30;99.90;;;;;;5116506;27;20380;-53
2022/07/07 03:05:22;;;;;;;13.88;6.53;;;14.30;99.90;;;;;;5114360;27;20067;-54
2022/07/07 03:07:48;;;;;;;10.80;6.28;;;14.20;99.90;;;;;;5100859;27;20045;-54
2022/07/07 03:10:16;;;;;;;10.38;6.43;;;14.20;99.90;;;;;;5112735;28;20060;-54
2022/07/07 03:12:42;;;;;;;10.45;6.50;;;14.30;99.90;;;;;;5095781;28;20036;-54
2022/07/07 03:15:08;;;;;;;8.57;6.38;;;14.20;99.90;;;;;;5057395;28;20127;-54
2022/07/07 03:17:42;;;;;;;11.68;6.35;;;14.30;99.90;;;;;;5078748;28;20620;-54
2022/07/07 03:20:10;;;;;;;8.20;5.50;;;14.30;99.90;;;;;;5070110;28;20489;-54
2022/07/07 03:22:37;;;;;;;8.18;6.00;;;14.30;99.90;;;;;;5078613;28;20519;-54
2022/07/07 03:25:04;;;;;;;7.15;5.93;;;14.30;99.90;;;;;;5089430;28;20044;-54
2022/07/07 03:27:30;;;;;;;13.05;6.47;;;14.20;99.90;;;;;;5092336;28;20127;-53
2022/07/07 03:29:56;;;;;;;15.18;6.35;;;14.40;99.90;;;;;;5095632;28;20501;-53
2022/07/07 03:32:22;;;;;;;8.95;5.82;;;14.40;99.90;;;;;;5114797;28;20047;-53
2022/07/07 03:34:48;;;;;;;12.68;6.90;;;14.30;99.90;;;;;;5091220;28;20045;-54
2022/07/07 03:37:14;;;;;;;16.13;6.88;;;14.40;99.90;;;;;;5098620;28;20048;-54
2022/07/07 03:39:40;;;;;;;9.35;6.28;;;14.40;99.90;;;;;;5092259;28;20057;-53
2022/07/07 03:42:07;;;;;;;11.03;6.30;;;14.50;99.90;;;;;;5001407;28;1223819;-54
2022/07/07 03:44:33;;;;;;;12.48;5.97;;;14.40;99.90;;;;;;5116869;27;20043;-54
2022/07/07 03:46:58;;;;;;;12.00;5.85;;;14.30;99.90;;;;;;5107511;28;20048;-53
2022/07/07 03:49:25;;;;;;;11.75;4.97;;;14.40;99.90;;;;;;5099011;28;20052;-53
2022/07/07 03:51:51;;;;;;;9.35;5.80;;;14.50;99.90;;;;;;5037742;28;20046;-53
2022/07/07 03:54:17;;;;;;;12.35;5.63;;;14.50;99.90;;;;;;5085666;28;20071;-54
2022/07/07 03:56:43;;;;;;;10.52;5.28;;;14.50;99.90;;;;;;5077049;28;20456;-54
2022/07/07 03:59:09;;;;;;;11.68;5.75;;;14.60;99.90;;;;;;5082431;28;20044;-54
2022/07/07 04:01:36;;;;;;;10.80;5.88;;;14.60;99.90;;;;;;5094396;28;20120;-53
2022/07/07 04:04:04;;;;;;;8.57;5.70;;;14.60;99.90;;;;;;5094333;28;20028;-53
2022/07/07 04:06:31;;;;;;;14.07;6.72;;;14.60;99.90;;;;;;5094402;28;20043;-53
2022/07/07 04:08:58;;;;;;;10.60;6.93;;;14.60;99.90;;;;;;5093107;28;20035;-53
2022/07/07 04:11:24;;;;;;;12.45;6.20;;;14.80;99.90;;;;;;5094175;28;20450;-53
2022/07/07 04:13:49;;;;;;;11.18;5.90;;;14.70;99.90;;;;;;5094535;28;20090;-53
2022/07/07 04:16:15;;;;;;;13.98;6.65;;;14.80;99.90;;;;;;5093104;28;20061;-53
2022/07/07 04:18:41;;;;;;;22.77;7.32;;;14.80;99.90;;;;;;5092997;28;20035;-53
2022/07/07 04:21:07;;;;;;;15.43;7.55;;;14.90;99.90;;;;;;5094193;28;20465;-53
2022/07/07 04:23:33;;;;;;;16.30;8.48;;;15.00;99.90;;;;;;5094118;28;20034;-53
2022/07/07 04:25:59;;;;;;;12.73;7.97;;;15.10;99.90;;;;;;5094197;28;20069;-53
2022/07/07 04:28:25;;;;;;;18.45;11.52;;;15.10;99.90;;;;;;5094092;28;20093;-53
2022/07/07 04:30:51;;;;;;;10.60;8.50;;;15.10;99.90;;;;;;5094178;28;20024;-53
2022/07/07 04:33:17;;;;;;;11.27;7.80;;;15.20;99.90;;;;;;5094089;28;20493;-53
2022/07/07 04:35:43;;;;;;;11.50;6.95;;;15.30;99.90;;;;;;5097506;28;20385;-53
2022/07/07 04:38:09;;;;;;;11.43;6.40;;;15.40;99.90;;;;;;5097648;28;20036;-53
2022/07/07 04:40:35;;;;;;;17.00;8.73;;;15.40;99.90;;;;;;5097858;28;20032;-53
2022/07/07 04:43:00;;;;;;;12.20;7.05;;;15.50;99.90;;;;;;5097849;28;20048;-53
2022/07/07 04:45:26;;;;;;;14.60;7.45;;;15.60;99.90;;;;;;5096724;28;20050;-53
2022/07/07 04:47:52;;;;;;;12.57;7.32;;;15.70;99.90;;;;;;5097706;28;20028;-53
2022/07/07 04:50:18;;;;;;;12.02;6.30;;;15.80;99.90;;;;;;5097707;28;20488;-53
2022/07/07 04:52:44;;;;;;;10.57;6.30;;;15.90;99.90;;;;;;5097519;28;20024;-53
2022/07/07 04:55:10;;;;;;;11.40;6.80;;;15.90;99.90;;;;;;5097536;28;20103;-53
2022/07/07 04:57:35;;;;;;;12.13;6.97;;;16.00;99.90;;;;;;5097582;28;20477;-53
2022/07/07 05:00:02;;;;;;;19.80;7.35;;;16.10;99.90;;;;;;5097186;28;20454;-53
2022/07/07 05:02:28;;;;;;;20.70;9.02;;;16.30;99.90;;;;;;5097522;28;20028;-53
2022/07/07 05:04:54;;;;;;;16.17;7.22;;;16.40;99.90;;;;;;5097461;28;20043;-53
2022/07/07 05:07:20;;;;;;;11.77;6.32;;;16.60;99.90;;;;;;5097332;28;20040;-53
2022/07/07 05:09:46;;;;;;;16.13;8.50;;;16.70;99.90;;;;;;5097348;28;20481;-53
2022/07/07 05:12:12;;;;;;;13.65;7.65;;;16.70;99.90;;;;;;5097037;28;20024;-53
2022/07/07 05:14:38;;;;;;;20.60;7.68;;;16.70;99.90;;;;;;5097131;28;20477;-53
2022/07/07 05:17:04;;;;;;;11.57;6.82;;;16.90;99.90;;;;;;5097108;28;20085;-54
2022/07/07 05:19:30;;;;;;;17.50;7.97;;;16.90;99.90;;;;;;5097060;28;20078;-54
2022/07/07 05:21:56;;;;;;;20.10;9.43;;;17.00;99.90;;;;;;5096870;28;20412;-54
2022/07/07 05:24:21;;;;;;;22.45;12.50;;;17.20;99.90;;;;;;5095173;28;20034;-53
2022/07/07 05:26:47;;;;;;;18.60;10.30;;;17.40;99.90;;;;;;5093071;28;20108;-53
2022/07/07 05:29:14;;;;;;;24.83;13.20;;;17.40;99.90;;;;;;5097133;28;20103;-53
2022/07/07 05:31:40;;;;;;;27.77;13.75;;;17.60;99.90;;;;;;5096678;28;20032;-53
2022/07/07 05:34:06;;;;;;;24.52;12.38;;;17.70;99.90;;;;;;5092989;28;20051;-53
2022/07/07 05:36:33;;;;;;;24.67;12.10;;;17.90;99.90;;;;;;5096344;28;20028;-53
2022/07/07 05:39:00;;;;;;;21.33;11.77;;;18.00;99.90;;;;;;5096580;28;20458;-53
2022/07/07 05:41:26;;;;;;;20.88;12.07;;;18.10;99.90;;;;;;5096630;28;20024;-54
2022/07/07 05:43:52;;;;;;;22.17;11.75;;;18.20;99.90;;;;;;5095931;28;20129;-54
2022/07/07 05:46:18;;;;;;;18.58;10.23;;;18.30;99.90;;;;;;5095117;28;20028;-53
2022/07/07 05:48:44;;;;;;;25.48;11.57;;;18.50;99.90;;;;;;5096363;28;20054;-53
2022/07/07 05:51:10;;;;;;;18.65;10.10;;;18.60;99.90;;;;;;5096693;28;20544;-54
2022/07/07 05:53:36;;;;;;;24.67;11.35;;;18.70;99.90;;;;;;5096498;28;20085;-54
2022/07/07 05:56:02;;;;;;;20.77;7.60;;;18.80;99.90;;;;;;5094862;28;20024;-54
2022/07/07 05:58:29;;;;;;;11.57;6.35;;;18.90;99.90;;;;;;5095401;28;20037;-54
2022/07/07 06:00:56;;;;;;;14.85;7.57;;;19.00;99.90;;;;;;5094369;28;20040;-54
2022/07/07 06:03:22;;;;;;;22.13;8.82;;;19.10;99.90;;;;;;5095939;28;20035;-54
2022/07/07 06:05:49;;;;;;;37.88;9.60;;;19.10;99.90;;;;;;5096179;28;20088;-54
2022/07/07 06:08:14;;;;;;;18.42;6.95;;;19.30;99.90;;;;;;5092372;28;20461;-54
2022/07/07 06:10:40;;;;;;;17.98;6.80;;;19.40;99.90;;;;;;5095750;28;20024;-54
2022/07/07 06:13:06;;;;;;;12.68;6.63;;;19.50;99.90;;;;;;5095943;28;20547;-54
2022/07/07 06:15:33;;;;;;;18.77;7.38;;;19.60;97.90;;;;;;5090327;28;21156;-53
2022/07/07 06:18:03;;;;;;;20.17;6.53;;;19.70;98.90;;;;;;5093240;28;20070;-54
2022/07/07 06:20:30;;;;;;;14.13;6.63;;;19.90;98.90;;;;;;5095902;28;20032;-54
2022/07/07 06:22:56;;;;;;;19.10;6.32;;;19.90;97.20;;;;;;5096151;28;20028;-54
2022/07/07 06:25:22;;;;;;;17.42;7.32;;;20.00;97.20;;;;;;5093616;28;20020;-54
2022/07/07 06:27:48;;;;;;;15.20;6.65;;;20.20;97.50;;;;;;5092276;28;20039;-54
2022/07/07 06:30:14;;;;;;;16.92;6.40;;;20.20;96.60;;;;;;5094146;28;20028;-54
2022/07/07 06:32:40;;;;;;;13.68;6.55;;;20.40;97.10;;;;;;5095301;28;20075;-54
2022/07/07 06:35:06;;;;;;;13.93;6.03;;;20.60;97.00;;;;;;5095344;28;20156;-54
2022/07/07 06:37:32;;;;;;;15.55;7.10;;;20.70;94.70;;;;;;5083685;28;20035;-54
2022/07/07 06:39:58;;;;;;;14.82;6.95;;;20.70;95.30;;;;;;5092705;28;20027;-54
2022/07/07 06:42:24;;;;;;;15.50;5.93;;;20.80;94.40;;;;;;5095522;28;20027;-54
2022/07/07 06:45:08;;;;;;;13.15;6.72;;;20.90;94.40;;;;;;5090106;28;20020;-54
2022/07/07 06:47:34;;;;;;;17.55;6.10;;;21.10;92.50;;;;;;5085633;28;20036;-54
2022/07/07 06:50:00;;;;;;;15.77;6.55;;;21.30;92.20;;;;;;5087453;28;20162;-54
2022/07/07 06:52:26;;;;;;;15.43;5.60;;;21.50;91.90;;;;;;5087087;28;20393;-54
2022/07/07 06:54:52;;;;;;;21.50;6.72;;;21.70;90.10;;;;;;5074716;28;20067;-54
2022/07/07 06:57:18;;;;;;;22.35;8.43;;;21.80;88.70;;;;;;5079288;28;20033;-54
2022/07/07 06:59:44;;;;;;;19.70;8.02;;;22.00;88.70;;;;;;5086393;28;20040;-54
2022/07/07 07:02:10;;;;;;;27.02;9.18;;;22.20;88.20;;;;;;5086337;28;20305;-54
2022/07/07 07:04:36;;;;;;;26.77;10.32;;;22.40;83.80;;;;;;5095116;28;20305;-54
2022/07/07 07:07:02;;;;;;;22.48;9.55;;;22.40;81.80;;;;;;5093700;28;20042;-54
2022/07/07 07:09:28;;;;;;;16.45;8.77;;;22.60;83.10;;;;;;5093294;28;20444;-54
2022/07/07 07:11:54;;;;;;;20.45;8.63;;;22.80;78.80;;;;;;5094234;28;20031;-54
2022/07/07 07:14:21;;;;;;;20.70;8.13;;;23.00;80.50;;;;;;5094738;28;20162;-54
2022/07/07 07:16:47;;;;;;;20.80;7.80;;;23.40;78.60;;;;;;5094687;28;20111;-54
2022/07/07 07:19:13;;;;;;;17.13;8.10;;;23.30;77.70;;;;;;5093707;28;20024;-54
2022/07/07 07:21:39;;;;;;;19.48;7.60;;;23.70;78.40;;;;;;5093345;28;20020;-54
2022/07/07 07:24:05;;;;;;;24.50;8.55;;;24.20;76.10;;;;;;5093982;28;20078;-54
2022/07/07 07:26:32;;;;;;;20.52;8.15;;;24.50;75.20;;;;;;5095142;28;20020;-54
2022/07/07 07:28:58;;;;;;;23.08;7.57;;;24.90;76.40;;;;;;5095228;28;20146;-54
2022/07/07 07:31:24;;;;;;;22.27;8.15;;;25.20;71.00;;;;;;5095030;28;20060;-54
2022/07/07 07:33:50;;;;;;;12.32;5.50;;;25.20;68.40;;;;;;5094852;28;20067;-54
2022/07/07 07:36:15;;;;;;;16.48;6.78;;;25.40;69.30;;;;;;5094375;28;20036;-54
2022/07/07 07:38:43;;;;;;;20.77;7.60;;;25.40;67.80;;;;;;5094039;28;20111;-54
2022/07/07 07:41:11;;;;;;;16.60;6.97;;;25.90;69.80;;;;;;5094287;28;20032;-54
2022/07/07 07:43:38;;;;;;;17.63;6.50;;;26.20;67.10;;;;;;5094148;28;20042;-54
2022/07/07 07:46:04;;;;;;;13.88;6.63;;;26.50;65.70;;;;;;5093992;28;20016;-54
2022/07/07 07:48:30;;;;;;;9.82;5.65;;;26.50;62.90;;;;;;5094370;28;20040;-54
2022/07/07 07:50:56;;;;;;;13.80;5.30;;;26.80;61.50;;;;;;5092846;28;20040;-54
2022/07/07 07:53:22;;;;;;;14.00;5.00;;;26.90;61.90;;;;;;5094033;28;20039;-54
2022/07/07 07:55:50;;;;;;;13.65;5.20;;;27.30;57.90;;;;;;5094183;28;20036;-54
2022/07/07 07:58:16;;;;;;;8.48;3.22;;;27.60;57.10;;;;;;5094112;28;20027;-54
2022/07/07 08:00:42;;;;;;;11.88;4.85;;;27.80;54.80;;;;;;5093461;28;20115;-55
2022/07/07 08:03:08;;;;;;;11.85;3.53;;;28.10;51.00;;;;;;5093078;28;20035;-54
2022/07/07 08:05:34;;;;;;;10.00;4.00;;;28.40;49.20;;;;;;5094024;28;20017;-55
2022/07/07 08:08:00;;;;;;;9.40;4.63;;;28.60;50.20;;;;;;5094116;28;20039;-55
2022/07/07 08:10:26;;;;;;;9.05;4.35;;;28.60;47.10;;;;;;5097317;28;20028;-54
2022/07/07 08:12:52;;;;;;;9.82;4.05;;;28.60;46.10;;;;;;5098131;28;20690;-54
2022/07/07 08:15:18;;;;;;;19.55;5.95;;;28.80;46.80;;;;;;5088948;28;20115;-55
2022/07/07 08:17:44;;;;;;;12.27;5.65;;;29.10;47.30;;;;;;5092537;28;20058;-55
2022/07/07 08:20:11;;;;;;;10.68;5.05;;;29.30;46.60;;;;;;5101889;28;20039;-54
2022/07/07 08:22:38;;;;;;;14.40;4.20;;;29.30;46.00;;;;;;5097377;28;20060;-54
2022/07/07 08:25:04;;;;;;;7.75;3.58;;;29.30;46.20;;;;;;5097697;28;20043;-55
2022/07/07 08:27:31;;;;;;;14.15;4.00;;;29.60;45.20;;;;;;5098019;28;20031;-55
2022/07/07 08:29:58;;;;;;;8.23;4.32;;;29.60;44.70;;;;;;5097510;28;20031;-54
2022/07/07 08:32:24;;;;;;;13.27;5.00;;;29.70;44.00;;;;;;5098420;28;20097;-55
2022/07/07 08:34:50;;;;;;;11.20;4.72;;;30.00;46.50;;;;;;5097340;28;20036;-55
2022/07/07 08:37:16;;;;;;;16.17;5.85;;;30.40;45.70;;;;;;5097595;28;20062;-55
2022/07/07 08:39:42;;;;;;;21.00;9.05;;;30.70;46.90;;;;;;5097240;28;20024;-55
2022/07/07 08:42:09;;;;;;;20.40;10.25;;;30.40;42.40;;;;;;5096247;28;20039;-55
2022/07/07 08:44:38;;;;;;;19.83;9.98;;;30.60;43.40;;;;;;5096824;28;20030;-55
2022/07/07 08:47:04;;;;;;;24.73;10.45;;;30.30;41.60;;;;;;5093683;28;20027;-54
2022/07/07 08:49:30;;;;;;;31.90;11.90;;;29.40;41.20;;;;;;5092096;28;20065;-55
2022/07/07 08:51:57;;;;;;;22.17;9.85;;;29.60;41.80;;;;;;5089967;28;20036;-55
2022/07/07 08:54:25;;;;;;;24.58;9.45;;;29.50;41.70;;;;;;5079189;28;20163;-54
2022/07/07 08:56:52;;;;;;;18.02;7.25;;;29.90;42.40;;;;;;5077318;28;20024;-55
2022/07/07 08:59:18;;;;;;;10.98;5.75;;;30.30;43.90;;;;;;5088863;28;20043;-55
2022/07/07 09:01:56;;;;;;;14.32;5.47;;;30.60;39.20;;;;;;5091177;28;20098;-55
2022/07/07 09:04:22;;;;;;;10.95;4.60;;;31.00;39.30;;;;;;5087443;28;20103;-55
2022/07/07 09:06:56;;;;;;;8.88;4.05;;;31.20;39.90;;;;;;5082871;28;20178;-55
2022/07/07 09:09:41;;;;;;;11.90;4.43;;;31.20;37.50;;;;;;5095662;28;20027;-55
2022/07/07 09:12:08;;;;;;;11.38;4.10;;;31.10;38.00;;;;;;5096982;28;20221;-54
2022/07/07 09:14:40;;;;;;;10.18;4.60;;;31.10;39.20;;;;;;5097381;28;20362;-55
2022/07/07 09:17:19;;;;;;;10.45;4.22;;;31.30;37.60;;;;;;5097503;28;20092;-54
2022/07/07 09:20:01;;;;;;;6.38;2.90;;;31.30;38.40;;;;;;5097420;28;20458;-54
2022/07/07 09:22:53;;;;;;;11.50;3.83;;;31.50;39.20;;;;;;5097579;28;20031;-54
2022/07/07 09:25:22;;;;;;;11.23;3.33;;;31.10;36.90;;;;;;5097366;28;20742;-54
2022/07/07 09:28:02;;;;;;;6.80;3.28;;;31.20;37.20;;;;;;5096686;28;20060;-55
2022/07/07 09:30:30;;;;;;;7.90;3.22;;;31.20;37.90;;;;;;5093989;28;20071;-55
2022/07/07 09:32:59;;;;;;;11.45;3.33;;;31.50;37.30;;;;;;5096803;28;20115;-54
2022/07/07 09:38:13;;;;;;;15.90;3.92;;;31.30;36.10;;;;;;5096591;28;20445;-54
2022/07/07 09:41:12;;;;;;;12.18;4.07;;;31.60;35.60;;;;;;5096420;28;20454;-55
2022/07/07 09:43:51;;;;;;;10.23;3.70;;;31.60;35.80;;;;;;5097542;28;20487;-55
2022/07/07 09:46:22;;;;;;;8.63;3.20;;;32.00;35.80;;;;;;5096245;28;20024;-55
2022/07/07 09:48:50;;;;;;;9.85;2.72;;;32.10;37.40;;;;;;5096590;28;20389;-54
2022/07/07 09:51:18;;;;;;;7.57;2.40;;;32.10;37.40;;;;;;5096511;28;20024;-55
2022/07/07 09:54:00;;;;;;;6.10;2.80;;;32.10;37.40;;;;;;5096253;28;20378;-55
2022/07/07 09:56:47;;;;;;;7.63;3.10;;;32.10;37.20;;;;;;5095463;28;20103;-55
2022/07/07 09:59:18;;;;;;;13.23;4.00;;;32.10;36.60;;;;;;5095927;28;20064;-55
2022/07/07 10:01:46;;;;;;;6.15;2.97;;;30.90;35.80;;;;;;5096265;28;20026;-55
2022/07/07 10:04:16;;;;;;;4.35;2.10;;;31.20;38.00;;;;;;5096245;28;20036;-55
2022/07/07 10:06:44;;;;;;;9.98;2.90;;;31.10;34.40;;;;;;5095967;28;20020;-55
2022/07/07 10:09:25;;;;;;;6.47;2.50;;;31.70;35.40;;;;;;5092379;28;20448;-55
2022/07/07 10:11:55;;;;;;;5.45;2.55;;;32.10;36.90;;;;;;5094376;28;20020;-55
2022/07/07 10:14:24;;;;;;;6.40;2.42;;;32.50;37.10;;;;;;5095650;28;20096;-55
2022/07/07 10:16:51;;;;;;;5.38;2.28;;;32.30;36.10;;;;;;5090170;28;20020;-55
2022/07/07 10:19:21;;;;;;;6.93;2.22;;;32.00;34.10;;;;;;5085967;28;20021;-55
2022/07/07 10:21:55;;;;;;;6.63;2.63;;;31.70;34.80;;;;;;5091061;28;20137;-55
2022/07/07 10:24:25;;;;;;;4.13;2.42;;;32.10;37.50;;;;;;5094255;28;20362;-55
2022/07/07 10:26:56;;;;;;;3.95;1.80;;;32.60;36.20;;;;;;5091096;28;20020;-55
2022/07/07 10:29:42;;;;;;;12.50;3.33;;;31.60;33.90;;;;;;5093535;28;20484;-55
2022/07/07 10:32:11;;;;;;;7.40;2.50;;;32.30;35.60;;;;;;5090167;28;20225;-55
2022/07/07 10:34:40;;;;;;;10.73;2.92;;;32.60;35.40;;;;;;5087396;28;20067;-55
2022/07/07 10:37:07;;;;;;;4.85;1.63;;;32.00;34.30;;;;;;5085381;28;20050;-55
2022/07/07 10:39:54;;;;;;;5.00;2.20;;;31.30;34.90;;;;;;5088521;28;20043;-55
2022/07/07 10:42:38;;;;;;;4.95;1.98;;;31.60;35.10;;;;;;5088185;28;20489;-55
2022/07/07 10:45:07;;;;;;;4.60;1.95;;;31.70;36.30;;;;;;5090228;28;20035;-55
2022/07/07 10:47:36;;;;;;;8.98;1.60;;;32.50;37.30;;;;;;5089429;28;20039;-55
2022/07/07 10:50:03;;;;;;;4.35;1.55;;;32.90;34.50;;;;;;5083022;28;20106;-55
2022/07/07 10:52:40;;;;;;;5.75;1.95;;;33.30;34.20;;;;;;5089592;28;20039;-55
2022/07/07 10:55:07;;;;;;;4.68;1.70;;;32.30;32.30;;;;;;5089311;28;20032;-55
2022/07/07 10:57:44;;;;;;;2.28;1.30;;;32.90;33.90;;;;;;5086262;28;20687;-55
2022/07/07 11:00:29;;;;;;;4.22;1.58;;;33.60;30.90;;;;;;5078649;28;20043;-55
2022/07/07 11:03:09;;;;;;;4.25;1.20;;;33.10;31.10;;;;;;5085116;28;20439;-55
2022/07/07 11:05:35;;;;;;;2.97;1.07;;;32.90;33.00;;;;;;5082525;28;20063;-55
2022/07/07 11:08:03;;;;;;;19.85;4.40;;;32.70;31.80;;;;;;5095395;28;20113;-55
2022/07/07 11:10:47;;;;;;;8.23;2.47;;;32.60;29.40;;;;;;5087514;28;20020;-55
2022/07/07 11:13:17;;;;;;;6.38;1.38;;;32.20;29.30;;;;;;5094252;28;20034;-55
2022/07/07 11:15:45;;;;;;;5.28;1.35;;;31.50;29.50;;;;;;5094701;28;20027;-55
2022/07/07 11:18:19;;;;;;;9.70;2.75;;;31.90;28.90;;;;;;5087667;28;20116;-55
2022/07/07 11:21:00;;;;;;;2.63;1.55;;;31.40;30.60;;;;;;5085805;28;20025;-55
2022/07/07 11:23:40;;;;;;;3.83;1.42;;;32.30;32.70;;;;;;5087227;28;20039;-55
2022/07/07 11:26:07;;;;;;;2.08;1.50;;;32.20;30.40;;;;;;5086447;28;20032;-55
2022/07/07 11:28:35;;;;;;;9.40;2.53;;;32.60;30.00;;;;;;5090863;28;20031;-55
2022/07/07 11:31:05;;;;;;;3.58;0.80;;;32.10;28.80;;;;;;5092053;28;20027;-55
2022/07/07 11:33:31;;;;;;;9.43;2.40;;;32.40;29.40;;;;;;5085336;28;20036;-55
2022/07/07 11:35:56;;;;;;;8.75;1.70;;;32.00;30.20;;;;;;5094363;28;20032;-55
2022/07/07 11:38:31;;;;;;;11.82;3.25;;;32.40;29.20;;;;;;5084202;28;20028;-55
2022/07/07 11:41:00;;;;;;;12.63;2.90;;;31.10;29.20;;;;;;5085848;28;20025;-55
2022/07/07 11:43:55;;;;;;;4.45;1.30;;;31.20;29.60;;;;;;5095920;28;20036;-55
2022/07/07 11:46:25;;;;;;;5.13;1.35;;;32.00;33.40;;;;;;5094476;28;20031;-55
2022/07/07 11:48:52;;;;;;;15.73;2.67;;;32.30;28.70;;;;;;5094431;28;20031;-55
2022/07/07 11:51:28;;;;;;;7.03;1.90;;;32.60;30.00;;;;;;5094923;28;20028;-55
2022/07/07 12:19:13;;;;;;;7.50;2.08;;;32.10;29.40;;;;;;5092691;28;20028;-55
2022/07/07 12:21:50;;;;;;;9.35;2.90;;;32.10;32.60;;;;;;5092701;28;20036;-55
2022/07/07 12:24:20;;;;;;;9.18;1.77;;;31.50;30.30;;;;;;5089432;28;20024;-55
2022/07/07 12:26:49;;;;;;;1.55;1.15;;;32.20;33.00;;;;;;5094427;28;20496;-55
2022/07/07 12:29:19;;;;;;;3.10;0.98;;;32.80;32.60;;;;;;5094202;28;20055;-55
2022/07/07 12:31:50;;;;;;;2.88;1.30;;;32.30;28.70;;;;;;5093886;28;20032;-55
2022/07/07 12:34:18;;;;;;;5.05;1.83;;;32.10;28.90;;;;;;5093461;28;20024;-56
2022/07/07 12:36:46;;;;;;;7.28;1.70;;;32.40;29.60;;;;;;5093889;28;20035;-55
2022/07/07 12:39:13;;;;;;;2.65;0.90;;;33.10;30.80;;;;;;5093693;28;20024;-55
2022/07/07 12:41:40;;;;;;;2.80;1.20;;;33.50;30.30;;;;;;5093206;28;20078;-55
2022/07/07 12:44:23;;;;;;;3.63;1.33;;;32.20;27.70;;;;;;5093749;28;20016;-55
2022/07/07 12:46:56;;;;;;;5.03;1.48;;;31.60;28.80;;;;;;5093215;28;20059;-55
2022/07/07 12:49:22;;;;;;;1.67;1.15;;;32.10;29.90;;;;;;5094218;28;20024;-55
2022/07/07 12:51:51;;;;;;;8.15;2.20;;;31.70;29.60;;;;;;5094475;28;20035;-55
2022/07/07 12:54:21;;;;;;;1.92;1.23;;;31.40;29.90;;;;;;5093849;28;20021;-55
2022/07/07 12:56:56;;;;;;;10.73;3.17;;;32.10;31.40;;;;;;5096760;28;20036;-55
2022/07/07 12:59:23;;;;;;;10.20;3.28;;;31.90;30.70;;;;;;5097240;28;20035;-55
2022/07/07 13:01:54;;;;;;;10.45;1.63;;;31.90;30.50;;;;;;5096968;28;20043;-55
2022/07/07 13:04:21;;;;;;;31.17;5.72;;;32.00;31.90;;;;;;5096605;28;20058;-55
2022/07/07 13:06:49;;;;;;;6.55;1.92;;;32.00;33.40;;;;;;5097201;28;20106;-55
2022/07/07 13:09:16;;;;;;;4.97;1.30;;;31.50;30.70;;;;;;5097313;28;20489;-54
2022/07/07 13:11:42;;;;;;;5.75;2.45;;;29.70;31.60;;;;;;5096561;28;20034;-54